Terminal Aerodrome Forecast
Issued by NWS Cleveland, OH

Home | Current Version | Previous Version | Text Only | Print | Product List | Glossary On
Versions: 1 2 3 4 5 6 7 8 9 10 11 12 13 14 15 16 17 18 19 20
628
FTUS41 KCLE 300537
TAFTOL
TAF
KTOL 300537Z 3006/0106 04008KT P6SM -RA SCT006 OVC025
      TEMPO 3008/3012 4SM RA BR OVC006
     FM301200 06008KT 6SM -RA BR OVC004
     FM301700 07012G20KT 6SM BR VCSH SCT006 OVC012
     FM302200 07012G20KT 4SM -RA BR OVC006=

USA.gov is the U.S. government's official web portal to all federal, state and local government web resources and services.